Time;durP1;ratioP1;P1;durP2;ratioP2;P2;SDS_P1;SDS_P2;PMS_P1;PMS_P2;Temp;Humidity;BMP_temperature;BMP_pressure;BME280_temperature;BME280_humidity;BME280_pressure;Samples;Min_cycle;Max_cycle;Signal;HPM_P1;HPM_P2
2023/06/09 00:02:00;;;;;;;7.22;4.68;;;;;;;17.88;73.57;98755.47;5147492;27;20100;-74
2023/06/09 00:04:29;;;;;;;4.85;4.32;;;;;;;17.86;73.94;98752.09;5147351;27;20037;-74
2023/06/09 00:06:56;;;;;;;4.88;4.13;;;;;;;17.84;74.01;98752.22;5147594;27;20050;-74
2023/06/09 00:09:24;;;;;;;4.95;4.32;;;;;;;17.82;73.84;98751.53;5147839;27;20306;-74
2023/06/09 00:11:51;;;;;;;5.97;4.70;;;;;;;17.83;73.66;98739.81;5147775;27;20035;-74
2023/06/09 00:14:18;;;;;;;4.97;4.47;;;;;;;17.81;74.10;98736.44;5147136;27;20035;-73
2023/06/09 00:16:46;;;;;;;4.90;4.40;;;;;;;17.82;73.84;98738.13;5146289;27;20050;-74
2023/06/09 00:19:13;;;;;;;5.25;4.70;;;;;;;17.81;74.26;98732.91;5147324;27;20050;-74
2023/06/09 00:21:40;;;;;;;5.88;5.05;;;;;;;17.78;74.39;98727.84;5147033;27;20035;-74
2023/06/09 00:24:08;;;;;;;5.93;5.18;;;;;;;17.10;74.28;98625.28;5146350;27;20104;-75
2023/06/09 00:26:36;;;;;;;6.32;4.68;;;;;;;17.75;74.60;98738.84;5146993;27;20039;-74
2023/06/09 00:29:03;;;;;;;6.20;4.90;;;;;;;17.78;74.35;98735.88;5147016;27;20066;-74
2023/06/09 00:31:29;;;;;;;5.57;4.93;;;;;;;17.67;74.74;98706.56;5146887;27;20122;-74
2023/06/09 00:33:56;;;;;;;4.95;4.45;;;;;;;17.78;74.31;98730.53;5146029;27;20039;-74
2023/06/09 00:36:23;;;;;;;6.28;4.85;;;;;;;17.66;74.70;98718.28;5145966;27;20031;-74
2023/06/09 00:38:49;;;;;;;5.72;5.13;;;;;;;17.53;74.22;98700.66;5147092;27;20092;-75
2023/06/09 00:41:16;;;;;;;5.50;4.90;;;;;;;17.77;74.46;98735.03;5147018;27;20322;-75
2023/06/09 00:43:46;;;;;;;5.25;4.40;;;;;;;17.79;74.65;98729.53;5146968;27;20065;-74
2023/06/09 00:46:13;;;;;;;4.90;4.07;;;;;;;17.80;74.71;98728.53;5146758;27;20054;-75
2023/06/09 00:48:40;;;;;;;6.70;5.63;;;;;;;17.79;74.38;98721.50;5147302;27;20276;-75
2023/06/09 00:51:07;;;;;;;6.00;5.35;;;;;;;17.79;74.49;98719.66;5146984;27;20050;-75
2023/06/09 00:53:34;;;;;;;8.38;5.50;;;;;;;17.56;74.48;98684.28;5146017;27;20397;-75
2023/06/09 00:56:01;;;;;;;9.85;4.97;;;;;;;17.79;74.81;98718.81;5146558;28;20052;-75
2023/06/09 00:58:28;;;;;;;6.18;5.57;;;;;;;17.78;74.86;98709.94;5146890;28;20176;-75
2023/06/09 01:00:57;;;;;;;9.57;6.00;;;;;;;17.77;74.75;98710.06;5146589;28;20053;-75
2023/06/09 01:03:26;;;;;;;6.75;5.05;;;;;;;17.78;74.53;98709.09;5147143;27;20039;-75
2023/06/09 01:06:03;;;;;;;8.82;5.90;;;;;;;17.76;74.83;98698.50;5147105;28;20058;-75
2023/06/09 01:08:38;;;;;;;6.07;5.47;;;;;;;17.75;75.11;98695.97;5145667;28;20046;-75
2023/06/09 01:11:12;;;;;;;8.07;5.32;;;;;;;17.73;74.77;98714.88;5146385;28;20221;-75
2023/06/09 01:13:44;;;;;;;6.97;6.22;;;;;;;17.69;75.05;98699.25;5146438;28;20039;-75
2023/06/09 01:16:18;;;;;;;6.78;5.28;;;;;;;17.67;75.23;98698.53;5146378;28;20202;-75
2023/06/09 01:18:47;;;;;;;7.95;6.85;;;;;;;17.68;75.03;98692.19;5146477;27;20106;-75
2023/06/09 01:21:32;;;;;;;7.20;6.05;;;;;;;17.67;75.17;98695.84;5146444;27;20088;-75
2023/06/09 01:24:09;;;;;;;6.93;6.22;;;;;;;17.68;74.95;98697.53;5146399;27;20067;-75
2023/06/09 01:26:40;;;;;;;6.03;5.43;;;;;;;17.68;75.25;98706.44;5146586;28;20107;-75
2023/06/09 01:29:08;;;;;;;7.43;6.68;;;;;;;17.67;74.97;98696.69;5145483;28;20062;-75
2023/06/09 01:31:36;;;;;;;7.07;6.07;;;;;;;17.66;75.22;98695.00;5146863;28;20364;-75
2023/06/09 01:34:04;;;;;;;8.55;6.20;;;;;;;17.66;75.31;98696.84;5147254;27;20039;-75
2023/06/09 01:36:31;;;;;;;7.35;6.18;;;;;;;17.67;74.96;98693.19;5149405;27;20279;-75
2023/06/09 01:38:58;;;;;;;7.95;7.15;;;;;;;17.26;74.95;98633.59;5150425;27;20039;-75
2023/06/09 01:41:25;;;;;;;7.15;6.35;;;;;;;17.13;75.02;98615.13;5150469;27;20038;-75
2023/06/09 01:43:53;;;;;;;7.65;6.82;;;;;;;17.61;74.99;98711.53;5150123;27;20253;-76
2023/06/09 01:46:20;;;;;;;7.47;6.45;;;;;;;17.58;74.91;98709.09;5150117;27;20043;-75
2023/06/09 01:49:02;;;;;;;7.55;6.15;;;;;;;17.57;74.93;98709.25;5150009;27;20039;-74
2023/06/09 01:51:37;;;;;;;7.97;6.90;;;;;;;17.55;74.84;98711.22;5149991;27;20364;-75
2023/06/09 01:54:10;;;;;;;7.22;6.53;;;;;;;17.54;74.73;98699.66;5150795;27;20039;-75
2023/06/09 01:56:41;;;;;;;8.90;8.07;;;;;;;17.54;74.91;98704.19;5150376;27;20035;-75
2023/06/09 01:59:17;;;;;;;8.55;6.95;;;;;;;17.53;74.92;98694.44;5149845;27;20241;-74
2023/06/09 02:01:46;;;;;;;7.28;6.57;;;;;;;17.31;74.54;98667.00;5149795;27;20307;-75
2023/06/09 02:04:14;;;;;;;9.95;6.65;;;;;;;17.51;74.80;98705.31;5150265;27;20084;-75
2023/06/09 02:06:41;;;;;;;9.32;7.10;;;;;;;17.52;74.67;98700.78;5149694;27;20088;-74
2023/06/09 02:09:09;;;;;;;7.82;6.95;;;;;;;17.50;74.88;98710.81;5150240;27;20043;-74
2023/06/09 02:11:37;;;;;;;9.88;8.38;;;;;;;17.47;74.79;98706.59;5149839;27;20100;-74
2023/06/09 02:14:04;;;;;;;8.10;7.20;;;;;;;17.03;74.99;98642.91;5149020;27;20100;-75
2023/06/09 02:16:32;;;;;;;9.07;7.93;;;;;;;17.46;74.70;98706.72;5149886;27;20070;-74
2023/06/09 02:19:00;;;;;;;7.57;6.88;;;;;;;17.43;74.96;98710.53;5149734;27;20218;-75
2023/06/09 02:21:27;;;;;;;7.78;6.45;;;;;;;17.44;74.42;98709.56;5148512;27;20084;-75
2023/06/09 02:23:53;;;;;;;7.18;6.47;;;;;;;17.44;74.37;98717.59;5149628;27;20325;-75
2023/06/09 02:26:20;;;;;;;7.03;6.32;;;;;;;17.44;74.39;98716.75;5149884;27;20035;-75
2023/06/09 02:28:47;;;;;;;6.72;5.85;;;;;;;17.44;74.25;98716.75;5149231;27;20084;-75
2023/06/09 02:31:14;;;;;;;5.95;5.18;;;;;;;17.43;74.35;98720.41;5149797;27;20047;-75
2023/06/09 02:33:42;;;;;;;6.35;5.75;;;;;;;17.43;74.33;98723.09;5149167;27;20042;-75
2023/06/09 02:36:13;;;;;;;7.20;6.15;;;;;;;17.43;73.98;98717.72;5149338;27;20042;-75
2023/06/09 02:38:40;;;;;;;8.20;5.93;;;;;;;17.43;73.91;98717.72;5148286;27;20047;-75
2023/06/09 02:41:06;;;;;;;7.10;5.70;;;;;;;17.42;73.62;98721.41;5149053;27;20076;-76
2023/06/09 02:43:33;;;;;;;6.60;5.90;;;;;;;17.40;73.90;98724.22;5149074;27;20059;-75
2023/06/09 02:46:00;;;;;;;6.18;5.35;;;;;;;17.38;73.85;98718.16;5148909;27;20102;-75
2023/06/09 02:48:27;;;;;;;7.03;6.22;;;;;;;17.37;73.70;98729.88;5149172;27;20214;-75
2023/06/09 02:50:55;;;;;;;8.05;6.28;;;;;;;17.32;74.10;98721.41;5148640;27;20049;-75
2023/06/09 02:53:22;;;;;;;6.97;5.78;;;;;;;17.28;73.96;98725.34;5147988;27;20041;-75
2023/06/09 02:55:49;;;;;;;6.65;5.85;;;;;;;17.28;74.13;98730.72;5148982;27;20088;-74
2023/06/09 02:58:16;;;;;;;8.18;6.38;;;;;;;17.29;74.20;98732.41;5148976;27;20039;-75
2023/06/09 03:00:44;;;;;;;8.88;6.03;;;;;;;17.30;74.09;98734.09;5148981;27;20039;-75
2023/06/09 03:03:12;;;;;;;6.50;5.75;;;;;;;17.28;73.75;98728.03;5147743;27;20035;-75
2023/06/09 03:05:40;;;;;;;7.07;6.00;;;;;;;17.28;73.64;98715.50;5148818;27;20042;-75
2023/06/09 03:08:10;;;;;;;6.70;6.07;;;;;;;17.28;73.57;98717.31;5148832;27;20047;-75
2023/06/09 03:10:36;;;;;;;6.78;5.97;;;;;;;17.28;73.70;98707.47;5147626;27;20039;-74
2023/06/09 03:13:03;;;;;;;8.18;6.25;;;;;;;17.26;73.97;98708.59;5148414;27;20039;-75
2023/06/09 03:15:30;;;;;;;6.97;6.00;;;;;;;17.25;73.92;98709.56;5148225;27;20053;-75
2023/06/09 03:17:57;;;;;;;6.70;5.68;;;;;;;17.24;73.73;98715.91;5148257;27;20080;-75
2023/06/09 03:20:24;;;;;;;8.25;6.15;;;;;;;17.21;73.86;98719.72;5147205;27;20084;-75
2023/06/09 03:22:52;;;;;;;6.88;6.03;;;;;;;17.21;73.54;98725.09;5148673;27;20058;-75
2023/06/09 03:25:21;;;;;;;7.22;6.53;;;;;;;17.19;73.61;98718.16;5147998;27;20049;-75
2023/06/09 03:27:48;;;;;;;7.18;5.60;;;;;;;17.19;73.78;98721.66;5148097;27;20068;-75
2023/06/09 03:30:15;;;;;;;7.00;5.50;;;;;;;17.18;74.07;98725.34;5147984;27;20190;-75
2023/06/09 03:32:41;;;;;;;7.25;6.22;;;;;;;17.16;74.20;98724.63;5148329;27;20118;-75
2023/06/09 03:35:09;;;;;;;7.05;6.25;;;;;;;17.16;74.27;98732.66;5148054;27;20035;-75
2023/06/09 03:37:36;;;;;;;8.18;6.22;;;;;;;16.96;74.01;98704.19;5147849;27;20035;-75
2023/06/09 03:40:04;;;;;;;6.45;5.85;;;;;;;17.13;74.18;98749.00;5146944;27;20049;-75
2023/06/09 03:42:32;;;;;;;7.13;6.18;;;;;;;17.15;74.31;98746.19;5146945;27;20110;-75
2023/06/09 03:44:59;;;;;;;6.63;5.35;;;;;;;17.02;74.11;98725.06;5147632;27;20059;-75
2023/06/09 03:47:26;;;;;;;8.07;6.75;;;;;;;17.17;74.45;98750.41;5147698;27;20107;-75
2023/06/09 03:49:54;;;;;;;8.25;6.00;;;;;;;17.19;74.25;98747.59;5147614;27;20203;-75
2023/06/09 03:52:21;;;;;;;6.80;5.97;;;;;;;17.06;74.16;98745.19;5146759;27;20207;-75
2023/06/09 03:54:48;;;;;;;6.63;6.00;;;;;;;16.39;74.16;98619.34;5148119;27;20045;-75
2023/06/09 03:57:15;;;;;;;8.02;5.47;;;;;;;17.18;73.96;98768.19;5147088;27;20047;-75
2023/06/09 03:59:43;;;;;;;6.10;5.55;;;;;;;17.20;73.94;98773.38;5146913;27;20043;-75
2023/06/09 04:02:10;;;;;;;6.57;5.97;;;;;;;16.85;74.51;98717.72;5146708;27;20031;-75
2023/06/09 04:04:36;;;;;;;7.78;6.38;;;;;;;17.14;74.52;98774.78;5147366;27;20035;-74
2023/06/09 04:07:04;;;;;;;6.68;5.93;;;;;;;17.15;74.13;98771.13;5146511;27;20043;-75
2023/06/09 04:09:32;;;;;;;6.75;6.15;;;;;;;16.87;74.15;98721.94;5147308;27;20299;-75
2023/06/09 04:11:59;;;;;;;7.18;6.47;;;;;;;17.17;74.39;98777.19;5147833;27;20043;-75
2023/06/09 04:14:26;;;;;;;6.65;5.72;;;;;;;17.15;74.03;98771.13;5147199;27;20049;-74
2023/06/09 04:16:54;;;;;;;6.65;6.05;;;;;;;17.14;73.97;98763.25;5147129;27;20206;-75
2023/06/09 04:19:21;;;;;;;6.15;5.55;;;;;;;17.02;74.48;98748.28;5146311;27;20035;-75
2023/06/09 04:21:49;;;;;;;8.80;5.97;;;;;;;17.12;74.49;98773.25;5147367;27;20046;-75
2023/06/09 04:24:16;;;;;;;6.78;5.68;;;;;;;17.12;74.63;98774.09;5146214;27;20194;-75
2023/06/09 04:26:43;;;;;;;7.22;6.55;;;;;;;17.14;74.52;98772.13;5146977;27;20056;-75
2023/06/09 04:29:10;;;;;;;6.30;5.70;;;;;;;17.14;73.90;98774.78;5146997;27;20047;-75
2023/06/09 04:31:42;;;;;;;7.18;6.03;;;;;;;17.14;74.19;98774.78;5146922;27;20038;-75
2023/06/09 04:34:12;;;;;;;7.63;5.90;;;;;;;17.11;74.28;98779.59;5147049;27;20106;-75
2023/06/09 04:36:39;;;;;;;6.35;5.55;;;;;;;17.08;74.19;98780.72;5147098;27;20043;-75
2023/06/09 04:39:07;;;;;;;6.05;5.32;;;;;;;17.08;74.32;98774.50;5147438;27;20039;-75
2023/06/09 04:41:34;;;;;;;7.70;5.65;;;;;;;16.89;74.10;98746.75;5146814;27;20092;-75
2023/06/09 04:44:05;;;;;;;6.03;5.43;;;;;;;17.09;74.37;98782.41;5146586;27;20066;-75
2023/06/09 04:46:37;;;;;;;7.07;5.85;;;;;;;16.52;74.06;98684.97;5145895;27;20307;-75
2023/06/09 04:49:08;;;;;;;6.57;5.93;;;;;;;17.10;74.44;98772.53;5146735;27;20046;-75
2023/06/09 04:51:41;;;;;;;6.72;6.03;;;;;;;16.96;74.53;98763.09;5145813;27;20047;-75
2023/06/09 04:54:08;;;;;;;5.97;5.38;;;;;;;17.08;74.43;98782.53;5146651;27;20236;-75
2023/06/09 04:56:36;;;;;;;7.55;6.22;;;;;;;17.09;74.81;98777.03;5147033;27;20047;-75
2023/06/09 04:59:04;;;;;;;7.10;6.40;;;;;;;17.11;74.55;98782.25;5145702;28;20038;-75
2023/06/09 05:01:30;;;;;;;6.28;5.68;;;;;;;17.12;74.52;98786.63;5145655;28;20253;-75
2023/06/09 05:03:59;;;;;;;6.45;5.03;;;;;;;17.12;74.48;98782.13;5145665;28;20125;-75
2023/06/09 05:06:26;;;;;;;6.43;5.55;;;;;;;17.13;74.89;98783.81;5146683;28;20051;-75
2023/06/09 05:08:55;;;;;;;6.18;5.25;;;;;;;17.14;74.73;98787.34;5145702;27;20031;-74
2023/06/09 05:11:22;;;;;;;7.05;6.35;;;;;;;17.15;75.17;98786.34;5150908;27;20092;-75
2023/06/09 05:13:49;;;;;;;7.00;5.88;;;;;;;17.16;75.22;98785.38;5150725;27;20103;-75
2023/06/09 05:16:16;;;;;;;7.07;5.43;;;;;;;17.18;75.12;98786.91;5151206;27;20113;-75
2023/06/09 05:18:43;;;;;;;7.63;5.70;;;;;;;17.21;75.05;98788.50;5150919;27;20241;-75
2023/06/09 05:21:12;;;;;;;6.55;5.95;;;;;;;17.12;75.03;98773.25;5150631;27;20255;-75
2023/06/09 05:23:38;;;;;;;6.57;5.88;;;;;;;17.22;74.88;98780.31;5151092;27;20035;-75
2023/06/09 05:26:06;;;;;;;7.40;5.78;;;;;;;17.24;74.67;98791.75;5150715;27;20039;-75
2023/06/09 05:28:33;;;;;;;6.88;6.15;;;;;;;17.26;74.95;98775.53;5150507;27;20352;-75
2023/06/09 05:31:01;;;;;;;6.82;5.53;;;;;;;17.29;74.80;98786.81;5149459;27;20046;-75
2023/06/09 05:33:28;;;;;;;8.38;6.60;;;;;;;16.84;74.67;98729.41;5150831;27;20340;-75
2023/06/09 05:35:55;;;;;;;8.15;6.18;;;;;;;17.31;74.69;98789.34;5150827;27;20046;-75
2023/06/09 05:38:25;;;;;;;6.85;6.18;;;;;;;17.33;74.55;98783.84;5150803;27;20100;-75
2023/06/09 05:40:52;;;;;;;6.93;6.28;;;;;;;17.33;74.40;98791.88;5150097;27;20039;-75
2023/06/09 05:43:21;;;;;;;6.35;5.75;;;;;;;17.11;74.17;98748.31;5149120;27;20077;-75
2023/06/09 05:45:47;;;;;;;6.25;5.65;;;;;;;17.32;74.23;98780.34;5149511;27;20206;-75
2023/06/09 05:48:14;;;;;;;6.30;5.47;;;;;;;17.35;74.24;98781.88;5150014;27;20088;-75
2023/06/09 05:50:41;;;;;;;7.40;5.70;;;;;;;17.38;74.29;98786.97;5150588;27;20043;-75
2023/06/09 05:53:08;;;;;;;6.78;5.93;;;;;;;17.40;74.36;98787.66;5150413;27;20051;-75
2023/06/09 05:55:35;;;;;;;5.32;4.75;;;;;;;17.41;74.37;98789.34;5150163;27;20110;-75
2023/06/09 05:58:02;;;;;;;5.78;5.15;;;;;;;17.35;73.93;98777.38;5149946;27;20039;-75
2023/06/09 06:00:31;;;;;;;7.35;5.28;;;;;;;17.44;74.10;98794.44;5149818;27;20310;-75
2023/06/09 06:03:00;;;;;;;5.93;5.13;;;;;;;17.44;74.20;98799.78;5150375;27;20084;-74
2023/06/09 06:05:27;;;;;;;5.78;5.18;;;;;;;17.24;73.86;98764.97;5148854;27;20229;-75
2023/06/09 06:07:54;;;;;;;6.00;4.82;;;;;;;17.48;73.81;98802.03;5150177;27;20050;-74
2023/06/09 06:10:20;;;;;;;5.75;4.95;;;;;;;17.49;73.85;98802.88;5149531;27;20345;-75
2023/06/09 06:12:47;;;;;;;6.18;5.50;;;;;;;17.49;73.96;98805.56;5149577;27;20049;-75
2023/06/09 06:15:14;;;;;;;5.68;5.07;;;;;;;17.52;73.59;98813.31;5148705;27;20058;-74
2023/06/09 06:17:42;;;;;;;5.13;4.38;;;;;;;17.54;73.74;98817.53;5149610;27;20035;-74
2023/06/09 06:20:11;;;;;;;5.80;5.13;;;;;;;17.56;73.46;98815.56;5148489;27;20118;-74
2023/06/09 06:22:38;;;;;;;7.95;5.18;;;;;;;17.43;73.40;98793.56;5148448;27;20051;-75
2023/06/09 06:25:06;;;;;;;5.90;5.15;;;;;;;17.57;73.43;98819.94;5149626;27;20322;-74
2023/06/09 06:27:32;;;;;;;7.22;5.55;;;;;;;16.63;73.51;98670.63;5149131;27;20061;-74
2023/06/09 06:29:59;;;;;;;8.45;5.63;;;;;;;17.62;73.75;98825.75;5148972;27;20122;-74
2023/06/09 06:32:26;;;;;;;8.52;6.30;;;;;;;17.62;73.72;98825.75;5148267;27;20127;-74
2023/06/09 06:34:54;;;;;;;6.57;5.60;;;;;;;17.66;73.65;98833.50;5149416;27;20106;-74
2023/06/09 06:37:22;;;;;;;9.25;6.63;;;;;;;17.44;73.26;98789.91;5149324;27;20115;-74
2023/06/09 06:39:49;;;;;;;8.85;6.53;;;;;;;17.68;73.51;98828.84;5149610;27;20309;-75
2023/06/09 06:42:15;;;;;;;8.43;5.70;;;;;;;17.29;73.03;98764.53;5149539;27;20065;-74
2023/06/09 06:44:42;;;;;;;7.85;5.25;;;;;;;17.04;73.05;98719.56;5149542;27;20112;-74
2023/06/09 06:47:09;;;;;;;6.13;5.28;;;;;;;17.73;72.89;98832.81;5149401;27;20047;-75
2023/06/09 06:49:36;;;;;;;7.57;5.18;;;;;;;17.73;72.67;98831.94;5148014;27;20039;-74
2023/06/09 06:52:04;;;;;;;7.97;5.78;;;;;;;17.10;72.21;98725.19;5148667;27;20039;-75
2023/06/09 06:54:31;;;;;;;7.03;6.32;;;;;;;17.75;72.30;98829.97;5148920;27;20102;-74
2023/06/09 06:57:00;;;;;;;6.45;5.05;;;;;;;17.77;72.89;98830.69;5149073;27;20244;-75
2023/06/09 06:59:27;;;;;;;8.00;6.93;;;;;;;17.78;72.48;98835.06;5148857;27;20160;-75
2023/06/09 07:01:54;;;;;;;7.85;6.15;;;;;;;17.67;72.17;98816.44;5147761;27;20050;-74
2023/06/09 07:04:20;;;;;;;8.68;6.90;;;;;;;17.82;72.41;98839.13;5148437;27;20046;-75
2023/06/09 07:06:47;;;;;;;9.05;6.28;;;;;;;17.61;72.13;98805.31;5147640;27;20096;-75
2023/06/09 07:09:15;;;;;;;7.18;6.18;;;;;;;17.84;71.95;98843.38;5148846;27;20054;-75
2023/06/09 07:11:44;;;;;;;6.05;5.45;;;;;;;17.83;72.33;98844.34;5148278;27;20046;-74
2023/06/09 07:14:11;;;;;;;10.75;5.68;;;;;;;17.52;72.19;98803.44;5148837;27;20035;-75
2023/06/09 07:16:37;;;;;;;7.70;5.35;;;;;;;17.83;72.17;98849.72;5148130;27;20031;-75
2023/06/09 07:19:04;;;;;;;8.32;6.20;;;;;;;17.84;71.72;98845.19;5147195;27;20046;-75
2023/06/09 07:21:32;;;;;;;6.50;5.07;;;;;;;16.02;72.33;98545.16;5148169;27;20031;-75
2023/06/09 07:23:58;;;;;;;6.45;5.35;;;;;;;17.81;72.09;98838.28;5147197;27;20256;-74
2023/06/09 07:26:27;;;;;;;7.65;5.82;;;;;;;17.89;71.97;98851.81;5148609;27;20031;-74
2023/06/09 07:28:54;;;;;;;7.05;5.45;;;;;;;17.92;72.08;98840.81;5148187;27;20161;-74
2023/06/09 07:31:20;;;;;;;5.57;4.97;;;;;;;17.90;71.96;98848.16;5148421;27;20338;-74
2023/06/09 07:33:48;;;;;;;7.57;6.20;;;;;;;17.92;71.85;98856.91;5146988;27;20087;-75
2023/06/09 07:36:14;;;;;;;6.07;5.47;;;;;;;17.94;71.98;98844.19;5148329;27;20080;-75
2023/06/09 07:38:43;;;;;;;6.25;5.47;;;;;;;17.96;71.51;98844.06;5146889;27;20043;-75
2023/06/09 07:41:10;;;;;;;7.00;4.82;;;;;;;17.97;71.62;98832.34;5147669;27;20241;-75
2023/06/09 07:43:38;;;;;;;4.95;4.45;;;;;;;17.98;71.45;98834.03;5147437;27;20089;-75
2023/06/09 07:46:05;;;;;;;7.80;4.93;;;;;;;17.98;71.22;98833.19;5147902;27;20043;-75
2023/06/09 07:48:31;;;;;;;7.13;5.07;;;;;;;17.99;71.29;98830.38;5147605;27;20038;-75
2023/06/09 07:50:58;;;;;;;7.95;5.68;;;;;;;17.80;71.35;98795.56;5147532;27;20035;-74
2023/06/09 07:53:25;;;;;;;7.97;5.63;;;;;;;18.03;71.48;98839.81;5147489;27;20042;-75
2023/06/09 07:55:52;;;;;;;7.72;6.15;;;;;;;18.06;71.62;98830.63;5147549;27;20035;-75
2023/06/09 07:58:18;;;;;;;7.25;5.63;;;;;;;18.09;71.26;98831.19;5147149;27;20176;-75
2023/06/09 08:00:47;;;;;;;10.25;6.05;;;;;;;18.13;71.08;98837.09;5146475;27;20146;-75
2023/06/09 08:03:13;;;;;;;9.20;5.20;;;;;;;18.01;71.05;98811.44;5147671;27;20307;-75
2023/06/09 08:05:40;;;;;;;6.10;5.25;;;;;;;18.17;71.04;98830.47;5146510;27;20247;-74
2023/06/09 08:08:07;;;;;;;6.38;4.72;;;;;;;18.17;70.73;98823.25;5147287;27;20106;-74
2023/06/09 08:10:34;;;;;;;5.38;4.68;;;;;;;18.19;70.93;98828.47;5147642;27;20047;-74
2023/06/09 08:13:01;;;;;;;5.82;5.25;;;;;;;18.21;70.93;98816.63;5147149;27;20046;-74
2023/06/09 08:15:27;;;;;;;6.53;5.53;;;;;;;16.04;70.41;98453.16;5147198;27;20099;-74
2023/06/09 08:17:56;;;;;;;7.53;5.32;;;;;;;18.22;70.29;98820.16;5147374;27;20038;-76
2023/06/09 08:20:22;;;;;;;4.97;4.45;;;;;;;18.21;70.58;98816.63;5147086;27;20039;-74
2023/06/09 08:22:49;;;;;;;5.78;4.75;;;;;;;18.25;70.23;98820.69;5146854;27;20043;-74
2023/06/09 08:25:16;;;;;;;5.72;4.88;;;;;;;18.28;70.39;98822.25;5147047;27;20043;-75
2023/06/09 08:27:43;;;;;;;5.85;4.50;;;;;;;18.30;70.00;98819.41;5145964;27;20291;-74
2023/06/09 08:30:10;;;;;;;5.95;4.85;;;;;;;18.32;70.30;98828.16;5147675;27;20275;-74
2023/06/09 08:32:39;;;;;;;7.43;4.50;;;;;;;18.35;70.20;98838.59;5145930;27;20124;-74
2023/06/09 08:35:11;;;;;;;5.13;4.38;;;;;;;18.33;69.45;98832.53;5147093;27;20074;-74
2023/06/09 08:37:38;;;;;;;7.00;5.00;;;;;;;18.35;69.96;98843.97;5147195;27;20039;-74
2023/06/09 08:40:08;;;;;;;6.30;4.35;;;;;;;18.36;69.85;98840.28;5146763;27;20241;-74
2023/06/09 08:42:35;;;;;;;6.05;4.78;;;;;;;18.37;69.92;98845.50;5147220;27;20035;-74
2023/06/09 08:45:04;;;;;;;5.50;4.93;;;;;;;18.40;70.18;98847.06;5146050;27;20053;-74
2023/06/09 08:47:33;;;;;;;5.30;4.53;;;;;;;18.30;69.94;98840.88;5147006;27;20051;-74
2023/06/09 08:50:02;;;;;;;6.40;4.35;;;;;;;18.41;69.93;98856.78;5146616;27;20038;-74
2023/06/09 08:52:31;;;;;;;6.15;4.70;;;;;;;18.43;70.04;98857.50;5146507;27;20241;-74
2023/06/09 08:54:59;;;;;;;5.82;4.72;;;;;;;18.45;69.94;98864.41;5145703;27;20039;-74
2023/06/09 08:57:26;;;;;;;5.60;4.80;;;;;;;18.46;69.82;98855.38;5145850;27;20076;-74
2023/06/09 08:59:54;;;;;;;4.90;4.40;;;;;;;18.45;69.68;98856.34;5145669;28;20045;-74
2023/06/09 09:02:21;;;;;;;7.13;4.80;;;;;;;18.45;69.67;98850.16;5146759;28;20240;-74
2023/06/09 09:04:49;;;;;;;5.68;5.07;;;;;;;18.46;69.71;98857.19;5146731;27;20058;-75
2023/06/09 09:07:16;;;;;;;6.78;5.53;;;;;;;18.32;69.95;98834.38;5146664;27;20095;-75
2023/06/09 09:09:44;;;;;;;6.40;5.53;;;;;;;18.45;69.67;98853.66;5145576;28;20043;-75
2023/06/09 09:12:13;;;;;;;7.13;5.85;;;;;;;18.26;70.17;98817.03;5145453;28;20034;-75
2023/06/09 09:14:41;;;;;;;7.55;5.85;;;;;;;18.47;70.06;98845.47;5146457;28;20035;-75
2023/06/09 09:17:10;;;;;;;6.13;5.22;;;;;;;18.49;69.83;98847.03;5146187;27;20035;-75
2023/06/09 09:19:41;;;;;;;7.85;6.22;;;;;;;18.53;69.76;98837.72;5146831;28;20039;-75
2023/06/09 09:22:08;;;;;;;7.63;6.22;;;;;;;18.56;69.98;98841.94;5146061;28;20042;-75
2023/06/09 09:24:36;;;;;;;8.65;7.18;;;;;;;18.09;69.58;98748.06;5145451;28;20032;-75
2023/06/09 09:27:16;;;;;;;8.30;6.60;;;;;;;18.57;69.41;98808.75;5146482;28;20284;-75
2023/06/09 09:29:43;;;;;;;7.72;6.78;;;;;;;18.78;69.42;98832.66;5146575;28;20050;-75
2023/06/09 09:32:10;;;;;;;7.63;6.70;;;;;;;18.84;69.19;98832.06;5145300;28;20070;-74
2023/06/09 09:34:40;;;;;;;8.23;7.10;;;;;;;18.83;69.50;98814.25;5146150;27;20055;-75
2023/06/09 09:37:11;;;;;;;9.35;6.72;;;;;;;18.94;69.16;98807.84;5146092;28;20043;-75
2023/06/09 09:39:48;;;;;;;9.30;6.30;;;;;;;19.13;68.63;98827.38;5145283;28;20039;-75
2023/06/09 09:42:16;;;;;;;6.78;5.95;;;;;;;19.21;68.24;98826.59;5145359;28;20046;-74
2023/06/09 09:44:46;;;;;;;7.60;6.15;;;;;;;19.27;68.38;98825.16;5145125;28;20054;-74
2023/06/09 09:47:15;;;;;;;7.30;6.18;;;;;;;19.38;68.42;98824.94;5146224;28;20047;-75
2023/06/09 09:49:53;;;;;;;7.78;5.70;;;;;;;19.26;67.29;98791.22;5146037;28;20241;-75
2023/06/09 09:52:25;;;;;;;6.03;5.43;;;;;;;19.50;67.04;98821.88;5145949;28;20043;-75
2023/06/09 09:54:53;;;;;;;6.80;6.10;;;;;;;19.55;67.38;98814.22;5145182;27;20041;-74
2023/06/09 09:57:23;;;;;;;8.27;6.95;;;;;;;19.62;67.05;98808.22;5147516;27;20049;-75
2023/06/09 09:59:52;;;;;;;7.10;6.28;;;;;;;19.70;67.11;98798.38;5149210;27;20090;-75
2023/06/09 10:02:23;;;;;;;8.60;7.75;;;;;;;19.82;66.90;98799.00;5148947;27;20117;-75
2023/06/09 10:04:52;;;;;;;8.85;7.95;;;;;;;19.95;67.12;98794.06;5150090;27;20051;-75
2023/06/09 10:07:22;;;;;;;10.50;8.40;;;;;;;19.94;66.49;98772.69;5148864;27;20039;-75
2023/06/09 10:09:52;;;;;;;10.13;9.13;;;;;;;20.14;66.06;98785.78;5149806;27;20035;-75
2023/06/09 10:12:21;;;;;;;8.18;7.20;;;;;;;20.27;66.15;98784.53;5150038;27;20096;-75
2023/06/09 10:14:49;;;;;;;7.20;6.45;;;;;;;20.32;65.70;98787.59;5149436;27;20091;-75
2023/06/09 10:17:20;;;;;;;9.80;7.68;;;;;;;20.38;65.21;98784.25;5148551;27;20062;-75
2023/06/09 10:19:48;;;;;;;8.23;7.45;;;;;;;20.48;65.14;98785.81;5149231;27;20042;-75
2023/06/09 10:22:15;;;;;;;8.00;7.00;;;;;;;20.53;65.05;98779.09;5149316;27;20046;-75
2023/06/09 10:24:44;;;;;;;8.05;7.20;;;;;;;20.52;65.05;98782.81;5149503;27;20051;-74
2023/06/09 10:27:11;;;;;;;8.63;7.70;;;;;;;19.98;64.81;98704.16;5149159;27;20066;-75
2023/06/09 10:29:40;;;;;;;9.93;7.47;;;;;;;20.55;64.86;98777.94;5149745;27;20031;-75
2023/06/09 10:32:09;;;;;;;8.25;7.43;;;;;;;20.56;64.92;98776.94;5149477;27;20035;-75
2023/06/09 10:34:37;;;;;;;8.85;7.95;;;;;;;20.59;64.74;98771.22;5149513;27;20069;-75
2023/06/09 10:37:05;;;;;;;11.57;10.48;;;;;;;20.62;64.75;98778.13;5131293;27;20325;-74
2023/06/09 10:39:48;;;;;;;14.63;12.73;;;;;;;20.52;63.95;98756.72;5149433;27;20031;-75
2023/06/09 10:42:22;;;;;;;12.70;11.27;;;;;;;20.46;64.04;98735.84;5149426;27;20092;-75
2023/06/09 10:45:02;;;;;;;8.25;7.45;;;;;;;18.95;63.55;98481.97;5148707;27;20061;-75
2023/06/09 10:47:43;;;;;;;7.75;6.95;;;;;;;20.64;62.77;98763.50;5147912;27;20039;-75
2023/06/09 10:50:25;;;;;;;7.53;6.72;;;;;;;20.60;62.68;98758.59;5147904;27;20045;-75
2023/06/09 10:52:56;;;;;;;6.70;6.07;;;;;;;20.55;63.95;98763.63;5148739;27;20058;-75
2023/06/09 10:55:24;;;;;;;7.40;6.25;;;;;;;20.55;64.20;98769.03;5149257;27;20039;-74
2023/06/09 10:57:52;;;;;;;6.32;5.72;;;;;;;20.51;63.95;98760.44;5148666;27;20042;-74
2023/06/09 11:00:21;;;;;;;6.88;5.72;;;;;;;19.73;63.65;98635.91;5148533;27;20100;-74
2023/06/09 11:02:49;;;;;;;7.20;6.03;;;;;;;20.44;64.04;98754.00;5148334;27;20114;-75
2023/06/09 11:05:17;;;;;;;7.95;6.88;;;;;;;20.46;64.00;98754.69;5148904;27;20042;-75
2023/06/09 11:07:49;;;;;;;6.97;6.30;;;;;;;20.46;63.63;98743.91;5147110;27;20407;-75
2023/06/09 11:10:36;;;;;;;7.38;6.60;;;;;;;20.46;62.53;98744.75;5148879;27;20035;-75
2023/06/09 11:13:22;;;;;;;8.82;7.05;;;;;;;20.49;63.90;98736.38;5148987;27;20283;-75
2023/06/09 11:16:03;;;;;;;7.82;6.97;;;;;;;20.46;63.29;98717.00;5147573;27;20035;-74
2023/06/09 11:18:31;;;;;;;6.75;6.13;;;;;;;20.61;63.62;98736.06;5148441;27;20043;-75
2023/06/09 11:21:12;;;;;;;9.45;8.43;;;;;;;20.32;63.22;98685.34;5147484;27;20309;-75
2023/06/09 11:24:05;;;;;;;9.35;8.45;;;;;;;20.50;62.92;98692.28;5148767;27;20054;-74
2023/06/09 11:26:34;;;;;;;10.35;8.90;;;;;;;20.79;63.37;98723.31;5148189;27;20282;-74
2023/06/09 11:29:03;;;;;;;8.43;7.63;;;;;;;20.86;63.05;98728.91;5147125;27;20050;-74
2023/06/09 11:31:48;;;;;;;8.38;7.25;;;;;;;20.10;61.83;98590.72;5147938;27;20102;-74
2023/06/09 11:34:29;;;;;;;;;;;;;;;20.82;62.00;98715.75;5149049;27;20047;-74
2023/06/09 11:36:56;;;;;;;7.15;6.32;;;;;;;20.85;62.97;98716.44;5148021;27;19919;-74
2023/06/09 11:39:23;;;;;;;7.82;7.13;;;;;;;20.90;62.85;98719.47;5148339;27;20039;-75
2023/06/09 11:41:50;;;;;;;7.60;6.38;;;;;;;20.92;62.47;98712.06;5148320;27;20039;-75